createdAt,value
2023-01-27T00:01:16.767Z,96992.98568677087
2023-01-27T00:04:16.541Z,96986.20030586899
2023-01-27T00:07:16.499Z,96982.580512547
2023-01-27T00:41:19.902Z,96981.65415968164
2023-01-27T00:44:16.684Z,96989.51219501965
2023-01-27T00:47:16.312Z,96985.98851818054
2023-01-27T00:51:17.383Z,96986.76446077588
2023-01-27T00:54:16.610Z,96986.80217875741
2023-01-27T00:57:16.557Z,96983.920464309
2023-01-27T01:01:16.861Z,96978.26638858399
2023-01-27T01:04:16.677Z,96982.85826035425
2023-01-27T01:07:16.807Z,96984.8197597386
2023-01-27T01:11:16.765Z,96982.97514434166
2023-01-27T01:14:16.263Z,96980.58088202523
2023-01-27T01:17:16.410Z,96983.32829346193
2023-01-27T01:21:16.318Z,96981.12455102045
2023-01-27T01:24:16.409Z,96984.87901178343
2023-01-27T01:27:16.154Z,96984.49464549386
2023-01-27T01:31:18.117Z,96982.714182494
2023-01-27T01:34:16.376Z,96980.08130595347
2023-01-27T01:37:16.225Z,96980.35323878736
2023-01-27T01:41:19.409Z,96974.43215255508
2023-01-27T01:44:22.183Z,96975.45054493388
2023-01-27T01:47:17.205Z,96973.09627871227
2023-01-27T01:51:20.832Z,96970.43553234091
2023-01-27T01:54:19.394Z,96969.60640948993
2023-01-27T01:57:22.255Z,96969.54592913756
2023-01-27T02:01:17.904Z,96971.37758326507
2023-01-27T02:04:21.709Z,96968.50220456396
2023-01-27T02:07:26.640Z,96967.03592972267
2023-01-27T02:11:16.371Z,96962.28923868824
2023-01-27T02:14:17.505Z,96961.29426582971
2023-01-27T02:17:17.041Z,96956.21367222142
2023-01-27T02:21:16.805Z,96956.0346452431
2023-01-27T02:24:16.449Z,96954.59433335249
2023-01-27T02:27:16.368Z,96952.37683637903
2023-01-27T02:31:16.021Z,96950.47404706785
2023-01-27T02:34:19.673Z,96943.75171042817
2023-01-27T02:37:16.559Z,96938.84076505972
2023-01-27T02:41:23.363Z,96940.75389963199
2023-01-27T02:44:16.568Z,96944.57219146352
2023-01-27T02:47:16.528Z,96944.18478757858
2023-01-27T02:51:16.383Z,96939.89996491777
2023-01-27T02:54:17.603Z,96941.41413626121
2023-01-27T02:57:16.573Z,96941.94336157934
2023-01-27T03:01:16.525Z,96939.04486344091
2023-01-27T03:04:16.474Z,96936.74745039678
2023-01-27T03:07:16.493Z,96934.73132885322
2023-01-27T03:12:19.786Z,96930.8488343146
2023-01-27T03:14:17.167Z,96927.89013947365
2023-01-27T03:18:22.809Z,96926.79583136896
2023-01-27T03:21:17.222Z,96925.39765290593
2023-01-27T03:24:16.427Z,96919.37377940056
2023-01-27T03:27:16.312Z,96917.61191325198
2023-01-27T03:31:20.131Z,96919.81983196038
2023-01-27T03:34:16.258Z,96924.70872654094
2023-01-27T03:51:16.857Z,96921.42912526768
2023-01-27T03:54:16.622Z,96929.42463927888
2023-01-27T03:57:16.433Z,96924.75440494585
2023-01-27T04:01:18.313Z,96927.3019853932
2023-01-27T04:12:20.696Z,96922.19502787743
2023-01-27T04:14:16.843Z,96920.66661215886
2023-01-27T04:17:18.448Z,96922.77432289271
2023-01-27T04:21:16.464Z,96917.83122092427
2023-01-27T04:24:22.923Z,96920.90773742489
2023-01-27T04:27:18.871Z,96921.9504895489
2023-01-27T04:31:17.083Z,96919.3687577077
2023-01-27T04:34:16.811Z,96916.86653838218
2023-01-27T04:37:16.429Z,96926.68968634373
2023-01-27T04:41:16.751Z,96923.43193329549
2023-01-27T04:44:17.429Z,96929.04689018433
2023-01-27T04:47:16.939Z,96924.15130806837
2023-01-27T04:51:16.658Z,96923.51350590169
2023-01-27T04:54:17.058Z,96923.52060801657
2023-01-27T04:57:16.781Z,96927.46676603354
2023-01-27T05:01:17.137Z,96932.15735438942
2023-01-27T05:04:16.862Z,96925.08582495409
2023-01-27T05:07:16.809Z,96930.8953678845
2023-01-27T05:11:16.990Z,96931.22346873836
2023-01-27T05:14:16.958Z,96934.86519014304
2023-01-27T05:17:16.900Z,96934.41506624337
2023-01-27T05:21:18.911Z,96934.06424497624
2023-01-27T05:24:16.811Z,96930.04777580315
2023-01-27T05:27:16.808Z,96929.16669387362
2023-01-27T05:31:19.100Z,96935.07798605852
2023-01-27T05:34:17.658Z,96930.15102964814
2023-01-27T05:37:16.718Z,96923.277567134
2023-01-27T05:41:17.731Z,96924.29443334643
2023-01-27T05:44:16.337Z,96926.51887256179
2023-01-27T05:47:16.280Z,96925.090843787
2023-01-27T05:51:19.853Z,96916.95683653331
2023-01-27T05:54:19.655Z,96923.02064680195
2023-01-27T05:57:17.361Z,96936.474755426
2023-01-27T06:01:18.349Z,96936.08272294808
2023-01-27T06:04:16.312Z,96930.29215134642
2023-01-27T06:07:16.237Z,96931.96520503289
2023-01-27T06:11:18.642Z,96937.20251778908
2023-01-27T06:14:16.952Z,96932.13543706517
2023-01-27T06:17:16.843Z,96932.52517577079
2023-01-27T06:21:17.889Z,96939.84808853826
2023-01-27T06:24:16.594Z,96939.56651396984
2023-01-27T06:27:16.532Z,96938.98550835408
2023-01-27T06:31:18.597Z,96944.46333447256
2023-01-27T06:34:16.655Z,96935.76603344851
2023-01-27T06:37:16.550Z,96939.8211997034
2023-01-27T06:41:17.253Z,96932.99275753245
2023-01-27T06:44:16.992Z,96940.52220068485
2023-01-27T06:47:16.911Z,96943.67957804084
2023-01-27T06:51:16.321Z,96940.61987392942
2023-01-27T06:54:16.765Z,96944.90630210779
2023-01-27T06:57:16.872Z,96954.35320142671
2023-01-27T07:01:16.752Z,96962.01817651966
2023-01-27T07:04:16.726Z,96964.75241719179
2023-01-27T07:07:16.910Z,96967.9880075084
2023-01-27T07:11:16.435Z,96968.66696714147
2023-01-27T07:14:16.763Z,96965.74714863267
2023-01-27T07:17:16.884Z,96970.36937502294
2023-01-27T07:21:15.856Z,96977.71067345965
2023-01-27T07:24:16.201Z,96980.35658953016
2023-01-27T07:27:16.153Z,96981.63292967477
2023-01-27T07:31:16.285Z,96972.04633681582
2023-01-27T07:34:16.681Z,96981.32238859948
2023-01-27T07:37:17.053Z,96986.21594816486
2023-01-27T07:41:16.078Z,96986.04722980311
2023-01-27T07:44:16.476Z,96990.2413879343
2023-01-27T07:47:16.470Z,97000.20218474531
2023-01-27T07:51:16.274Z,96998.32682374121
2023-01-27T07:54:16.757Z,96996.83397794316
2023-01-27T07:57:16.651Z,97003.02833305557
2023-01-27T08:01:15.876Z,96999.38392515125
2023-01-27T08:04:16.064Z,97009.03070841264
2023-01-27T08:07:16.611Z,97007.8524849281
2023-01-27T08:11:16.317Z,97006.76347444546
2023-01-27T08:14:16.464Z,97007.98913891587
2023-01-27T08:17:16.234Z,97011.29337161318
2023-01-27T08:21:16.143Z,97009.56497950929
2023-01-27T08:24:16.625Z,97008.604773573
2023-01-27T08:27:16.918Z,97012.30151280446
2023-01-27T08:31:17.424Z,97009.18739226146
2023-01-27T08:34:17.497Z,97010.1382671815
2023-01-27T08:37:17.127Z,97008.96957662898
2023-01-27T08:41:19.207Z,97012.47407498979
2023-01-27T08:44:17.210Z,97010.05519705905
2023-01-27T08:47:17.214Z,97010.50260887932
2023-01-27T08:51:16.689Z,97007.31098860179
2023-01-27T08:54:16.729Z,97021.64317458082
2023-01-27T08:57:16.865Z,97015.09269737318
2023-01-27T09:01:17.629Z,97018.46031512371
2023-01-27T09:04:17.217Z,97025.05603632976
2023-01-27T09:07:17.326Z,97022.79486903994
2023-01-27T09:11:16.999Z,97022.61496215062
2023-01-27T09:14:16.384Z,97025.0734611355
2023-01-27T09:17:19.881Z,97028.58682565358
2023-01-27T09:21:17.391Z,97024.71058199902
2023-01-27T09:24:18.269Z,97025.58873794295
2023-01-27T09:27:18.090Z,97029.62744448984
2023-01-27T09:31:16.921Z,97025.44002916198
2023-01-27T09:34:18.165Z,97021.35549845241
2023-01-27T09:37:17.749Z,97016.9434203729
2023-01-27T09:41:33.266Z,97025.3921453841
2023-01-27T09:44:31.441Z,97031.48901121561
2023-01-27T09:47:32.893Z,97024.85428994699
2023-01-27T09:51:22.170Z,97032.30893096702
2023-01-27T09:54:28.667Z,97027.8535756468
2023-01-27T09:57:24.737Z,97029.19621769471
2023-01-27T10:01:26.317Z,97030.43464263956
2023-01-27T10:04:35.798Z,97030.04581435805
2023-01-27T10:07:32.756Z,97033.83224103133
2023-01-27T10:11:19.576Z,97034.83998745917
2023-01-27T10:14:25.592Z,97035.12396803455
2023-01-27T10:17:30.093Z,97031.95694144683
2023-01-27T10:21:25.650Z,97032.48544970895
2023-01-27T10:24:30.814Z,97038.04098827603
2023-01-27T10:27:21.115Z,97039.76765731927
2023-01-27T10:31:23.175Z,97034.45931861724
2023-01-27T10:34:26.162Z,97036.06917081965
2023-01-27T10:37:26.933Z,97034.78262003204
2023-01-27T10:41:28.883Z,97033.50094512192
2023-01-27T10:44:36.113Z,97029.9651863135
2023-01-27T10:47:31.823Z,97027.21774320735
2023-01-27T10:51:23.845Z,97031.76552844582
2023-01-27T10:54:24.982Z,97035.35602014535
2023-01-27T10:57:23.188Z,97038.38557244287
2023-01-27T11:01:25.033Z,97035.63778744823
2023-01-27T11:04:31.275Z,97040.7018233042
2023-01-27T11:11:51.449Z,97042.97935686892
2023-01-27T11:14:24.390Z,97043.64470156968
2023-01-27T11:17:24.459Z,97041.1770556311
2023-01-27T11:21:20.994Z,97042.92570852827
2023-01-27T11:24:25.239Z,97036.04338022541
2023-01-27T11:27:25.940Z,97039.44952559119
2023-01-27T11:31:25.915Z,97038.43756401574
2023-01-27T11:34:25.580Z,97032.0891183545
2023-01-27T11:37:21.116Z,97031.00669377898
2023-01-27T11:41:16.859Z,97031.12559268875
2023-01-27T11:44:19.037Z,97026.34263422081
2023-01-27T11:47:22.940Z,97027.33688129994
2023-01-27T11:51:21.511Z,97025.42409886303
2023-01-27T11:54:22.250Z,97024.73617222758
2023-01-27T11:57:20.343Z,97020.7270095224
2023-01-27T12:01:20.875Z,97014.66866683896
2023-01-27T12:04:22.141Z,97016.05227423
2023-01-27T12:07:21.146Z,97006.75330825147
2023-01-27T12:11:19.495Z,97003.70644108493
2023-01-27T12:14:17.087Z,97000.37769082616
2023-01-27T12:17:24.593Z,96995.66306256052
2023-01-27T12:21:17.652Z,96988.89427119216
2023-01-27T12:24:26.271Z,96981.81908019808
2023-01-27T12:27:22.266Z,96982.75112037252
2023-01-27T12:31:22.117Z,96977.32038794989
2023-01-27T12:34:24.395Z,96972.46988186582
2023-01-27T12:37:23.359Z,96969.8909667087
2023-01-27T12:41:22.903Z,96970.0267303867
2023-01-27T12:44:19.112Z,96962.71789158943
2023-01-27T12:47:24.025Z,96964.45244795177
2023-01-27T12:51:19.429Z,96962.04547780025
2023-01-27T12:54:21.247Z,96960.21256225219
2023-01-27T12:57:20.793Z,96963.20396558294
2023-01-27T13:01:25.901Z,96952.4787251667
2023-01-27T13:04:22.447Z,96954.89490866291
2023-01-27T13:07:23.264Z,96960.23425211267
2023-01-27T13:11:30.010Z,96956.10514339666
2023-01-27T13:14:18.109Z,96959.32026373319
2023-01-27T13:17:37.671Z,96960.42629521382
2023-01-27T13:21:20.662Z,96952.16130328352
2023-01-27T13:24:26.809Z,96948.36139835184
2023-01-27T13:27:21.070Z,96951.24984993276
2023-01-27T13:31:26.985Z,96947.62164268199
2023-01-27T13:34:26.750Z,96950.21850401256
2023-01-27T13:37:21.869Z,96949.809520998
2023-01-27T13:41:24.895Z,96948.30834529878
2023-01-27T13:44:25.447Z,96946.78330947946
2023-01-27T13:47:22.754Z,96951.48282527976
2023-01-27T13:51:18.888Z,96951.11705975005
2023-01-27T13:54:16.893Z,96955.70922308454
2023-01-27T13:57:59.935Z,96955.02862316444
2023-01-27T14:01:24.370Z,96955.67169972314
2023-01-27T14:04:34.479Z,96956.48238133547
2023-01-27T14:07:25.727Z,96958.80971159552
2023-01-27T14:11:27.209Z,96962.80728147396
2023-01-27T14:14:30.923Z,96962.2168788517
2023-01-27T14:17:32.005Z,96967.57368929317
2023-01-27T14:21:39.237Z,96975.54932173349
2023-01-27T14:24:37.797Z,96976.89983949886
2023-01-27T14:27:23.728Z,96974.63673369154
2023-01-27T14:31:20.342Z,96978.10253841351
2023-01-27T14:34:38.823Z,96986.20018452269
2023-01-27T14:37:26.932Z,96988.11957572497
2023-01-27T14:41:26.302Z,96992.97276403052
2023-01-27T14:44:22.247Z,96993.16697014749
2023-01-27T14:47:23.718Z,96998.00481827019
2023-01-27T14:51:27.305Z,97004.23366586084
2023-01-27T14:54:32.537Z,97008.88477811124
2023-01-27T14:57:26.555Z,97010.30194010769
2023-01-27T15:01:28.066Z,97008.81766342849
2023-01-27T15:04:30.039Z,97010.39976859378
2023-01-27T15:07:25.257Z,97010.1524982422
2023-01-27T15:11:32.569Z,97007.42563069277
2023-01-27T15:14:38.241Z,97016.61630890421
2023-01-27T15:17:33.284Z,97015.90924246404
2023-01-27T15:21:29.165Z,97022.68125424045
2023-01-27T15:24:35.945Z,97019.06314501105
2023-01-27T15:27:16.941Z,97027.18774433897
2023-01-27T15:31:24.511Z,97036.45996395865
2023-01-27T15:34:21.047Z,97039.98614803655
2023-01-27T15:37:21.344Z,97045.6857735784
2023-01-27T15:41:16.544Z,97053.58578774089
2023-01-27T15:44:18.623Z,97056.18781092898
2023-01-27T15:47:21.846Z,97064.2473045956
2023-01-27T15:51:19.147Z,97065.40929590688
2023-01-27T15:54:22.311Z,97068.27009808795
2023-01-27T15:57:28.669Z,97069.84206421213
2023-01-27T16:01:24.741Z,97074.4901049522
2023-01-27T16:04:23.237Z,97079.38231409229
2023-01-27T16:07:24.804Z,97079.96140477274
2023-01-27T16:11:40.130Z,97086.65819338158
2023-01-27T16:14:39.887Z,97087.55022868128
2023-01-27T16:17:20.709Z,97092.5749216413
2023-01-27T16:21:35.610Z,97098.30998695399
2023-01-27T16:24:25.599Z,97104.17689582688
2023-01-27T16:27:30.208Z,97109.58371279878
2023-01-27T16:31:20.165Z,97111.39752646894
2023-01-27T16:34:22.125Z,97119.33707575624
2023-01-27T16:37:23.627Z,97120.79810214635
2023-01-27T16:41:19.041Z,97119.1691491593
2023-01-27T16:44:20.251Z,97124.69885370437
2023-01-27T16:51:19.261Z,97139.4398010676
2023-01-27T16:54:22.477Z,97147.7497360645
2023-01-27T16:57:27.413Z,97145.6139181063
2023-01-27T17:01:24.575Z,97153.20887592822
2023-01-27T17:04:20.755Z,97156.33363460634
2023-01-27T17:07:16.733Z,97161.03789166352
2023-01-27T17:11:22.653Z,97166.16212221581
2023-01-27T17:14:29.885Z,97168.29256600396
2023-01-27T17:17:20.003Z,97170.35291169364
2023-01-27T17:21:27.847Z,97174.05648129462
2023-01-27T17:24:20.613Z,97173.249990977
2023-01-27T17:27:23.644Z,97176.03531796321
2023-01-27T17:31:20.605Z,97174.07123998176
2023-01-27T17:34:20.280Z,97176.98970869071
2023-01-27T17:37:19.304Z,97182.35543726488
2023-01-27T17:41:27.324Z,97191.26906326637
2023-01-27T17:44:16.978Z,97195.68336166684
2023-01-27T17:47:19.228Z,97198.93155917253
2023-01-27T17:51:20.651Z,97205.28975329085
2023-01-27T17:54:24.193Z,97214.1899207672
2023-01-27T17:57:21.542Z,97221.93175337513
2023-01-27T18:01:17.868Z,97225.22909942026
2023-01-27T18:04:17.873Z,97231.65087949944
2023-01-27T18:07:17.093Z,97236.66963005153
2023-01-27T18:11:24.184Z,97237.18250523714
2023-01-27T18:14:19.459Z,97240.03467932229
2023-01-27T18:17:22.163Z,97242.24695196477
2023-01-27T18:21:21.725Z,97249.54416837315
2023-01-27T18:24:22.636Z,97253.99870620483
2023-01-27T18:27:29.138Z,97255.73244283079
2023-01-27T18:31:21.881Z,97265.57685546967
2023-01-27T18:34:26.078Z,97266.65448030841
2023-01-27T18:37:27.782Z,97269.09109863221
2023-01-27T18:41:24.074Z,97276.07288524852
2023-01-27T18:44:19.138Z,97279.84716766399
2023-01-27T18:47:31.945Z,97284.778386414
2023-01-27T18:51:17.331Z,97285.1489155529
2023-01-27T18:54:17.645Z,97273.85126846572
2023-01-27T18:57:18.293Z,97271.1728267661
2023-01-27T19:01:22.069Z,97276.92306574894
2023-01-27T19:04:16.483Z,97275.1107565183
2023-01-27T19:07:17.629Z,97279.9873266397
2023-01-27T19:11:17.495Z,97295.90031097273
2023-01-27T19:14:17.921Z,97294.51155988693
2023-01-27T19:17:20.183Z,97295.95751673062
2023-01-27T19:21:16.559Z,97299.86436139561
2023-01-27T19:24:17.000Z,97303.3365103422
2023-01-27T19:27:18.312Z,97302.7103491747
2023-01-27T19:31:17.113Z,97302.30103531564
2023-01-27T19:34:17.149Z,97303.02608305997
2023-01-27T19:37:18.224Z,97298.00657398024
2023-01-27T19:41:16.851Z,97298.55484877196
2023-01-27T19:44:17.175Z,97290.8811233617
2023-01-27T19:47:17.077Z,97290.23790134574
2023-01-27T19:51:18.197Z,97293.17741610513
2023-01-27T19:54:17.499Z,97301.10081112392
2023-01-27T19:57:17.405Z,97300.88060358397
2023-01-27T20:01:17.642Z,97302.13618282496
2023-01-27T20:04:17.380Z,97307.25504463702
2023-01-27T20:07:17.359Z,97313.92569567097
2023-01-27T20:11:29.443Z,97314.31089091867
2023-01-27T20:14:18.641Z,97315.31612369657
2023-01-27T20:17:16.400Z,97316.53660034385
2023-01-27T20:21:16.632Z,97316.13816195211
2023-01-27T20:24:18.674Z,97316.46529715955
2023-01-27T20:27:16.832Z,97324.29579701618
2023-01-27T20:31:20.097Z,97328.66675106915
2023-01-27T20:34:17.900Z,97331.45850105186
2023-01-27T20:37:17.815Z,97331.88876416933
2023-01-27T20:41:18.789Z,97337.67396020531
2023-01-27T20:44:16.908Z,97345.68623717528
2023-01-27T20:47:16.632Z,97342.76151517358
2023-01-27T20:51:16.776Z,97347.86679188313
2023-01-27T20:54:17.178Z,97351.53374451038
2023-01-27T20:57:20.826Z,97352.69368134925
2023-01-27T21:01:18.328Z,97359.91357625042
2023-01-27T21:04:16.459Z,97361.96141170688
2023-01-27T21:07:16.454Z,97369.15314847161
2023-01-27T21:11:19.427Z,97369.66977515556
2023-01-27T21:14:17.068Z,97372.74079828913
2023-01-27T21:17:17.648Z,97381.22543004638
2023-01-27T21:21:23.010Z,97379.0580271739
2023-01-27T21:24:16.480Z,97382.37985583031
2023-01-27T21:27:16.388Z,97376.62370978069
2023-01-27T21:31:19.755Z,97372.73780250007
2023-01-27T21:34:17.596Z,97371.75199748958
2023-01-27T21:37:17.813Z,97365.80563149032
2023-01-27T21:45:13.130Z,97366.42280445452
2023-01-27T21:47:18.417Z,97375.5923043984
2023-01-27T21:51:17.024Z,97375.14099221744
2023-01-27T21:54:17.018Z,97369.6156046284
2023-01-27T21:57:17.379Z,97371.97723805175
2023-01-27T22:01:21.480Z,97365.71189382147
2023-01-27T22:04:18.231Z,97366.32779397424
2023-01-27T22:07:18.507Z,97368.08313159797
2023-01-27T22:11:15.929Z,97371.26760988812
2023-01-27T22:14:16.291Z,97367.660260014
2023-01-27T22:17:18.394Z,97374.97057225964
2023-01-27T22:21:16.858Z,97371.8310432799
2023-01-27T22:24:17.168Z,97367.6192556602
2023-01-27T22:27:17.086Z,97368.79203038439
2023-01-27T22:31:16.918Z,97363.38414206207
2023-01-27T22:34:17.250Z,97366.11794176327
2023-01-27T22:37:17.568Z,97366.19532997497
2023-01-27T22:41:15.911Z,97368.53633707113
2023-01-27T22:44:16.842Z,97377.08021214289
2023-01-27T22:47:16.251Z,97382.38743492744
2023-01-27T22:51:16.771Z,97379.64851294119
2023-01-27T22:54:16.549Z,97377.78194763065
2023-01-27T22:57:16.439Z,97378.82630985894
2023-01-27T23:01:16.396Z,97378.86718941781
2023-01-27T23:04:16.532Z,97376.20141178186
2023-01-27T23:07:16.483Z,97385.10876038203
2023-01-27T23:11:16.175Z,97383.67817781106
2023-01-27T23:14:17.465Z,97387.60057091128
2023-01-27T23:17:16.537Z,97386.80459065453
2023-01-27T23:21:16.483Z,97387.20536779784
2023-01-27T23:24:16.683Z,97390.486983612
2023-01-27T23:27:16.745Z,97389.50931396353
2023-01-27T23:31:16.833Z,97395.0097716114
2023-01-27T23:34:17.044Z,97396.5956578425
2023-01-27T23:37:17.483Z,97399.87822048212
2023-01-27T23:41:18.839Z,97402.90142739462
2023-01-27T23:44:17.327Z,97399.69569481844
2023-01-27T23:47:17.223Z,97396.88067166286
2023-01-27T23:51:17.491Z,97401.15941201945
2023-01-27T23:54:17.275Z,97397.18416167065
2023-01-27T23:57:17.276Z,97400.43408572237
